Flight Track Log - Related Links

Times and Time Zones

All times are in EDT time to prevent confusion due to time zone crossing. See the SWA2436 flight status page for this flight to view local times or setup timezone preferences in your user account.

Time Position Orientation Groundspeed Altitude Reporting Facility
EDT Latitude Longitude Course Direction KTS MPH feet Rate Location/Type
Wed 12:59:30 PM 39.9500 -104.6833 11° North 208 239 9,000  Level Denver TRACON
Wed 01:00:30 PM 40.0167 -104.6667 11° North 264 304 10,000 750 Climbing Denver TRACON
Wed 01:01:14 PM 40.0761 -104.6464 15° North 292 336 10,300 1,981 Climbing Denver Center
Wed 01:02:16 PM 40.1692 -104.6106 16° North 323 372 13,500 2,647 Climbing Denver Center
Wed 01:03:30 PM 40.2600 -104.5758 16° North 341 392 16,300 2,471 Climbing Denver Center
Wed 01:04:32 PM 40.3822 -104.5300 16° North 371 427 19,100 2,661 Climbing Denver Center
Wed 01:05:34 PM 40.4936 -104.4858 17° North 390 449 21,800 1,935 Climbing Denver Center
Wed 01:06:36 PM 40.5986 -104.4475 15° North 395 455 23,100 1,645 Climbing Denver Center
Wed 01:07:38 PM 40.7064 -104.4028 17° North 396 456 25,200 2,129 Climbing Denver Center
Wed 01:08:40 PM 40.8131 -104.3644 15° North 393 452 27,500 2,129 Climbing Denver Center
Wed 01:09:42 PM 40.9203 -104.3200 17° North 398 458 29,600 1,694 Climbing Denver Center
Wed 01:10:44 PM 41.0342 -104.2742 17° North 390 449 31,000 672 Climbing Denver Center
Wed 01:11:47 PM 41.1367 -104.2347 16° North 398 458 31,000  Level Denver Center
Wed 01:12:48 PM 41.2578 -104.1822 18° North 407 468 31,000  Level Denver Center
Wed 01:13:50 PM 41.3611 -104.1394 17° North 408 470 31,000 387 Level Denver Center
Wed 01:14:52 PM 41.4825 -104.0908 17° North 409 471 31,800 823 Climbing Denver Center
Wed 01:15:54 PM 41.5925 -104.0439 18° North 424 488 32,700 1,210 Climbing Denver Center
Wed 01:16:56 PM 41.7233 -103.9886 18° North 440 506 34,300 1,355 Climbing Denver Center
Wed 01:17:58 PM 41.8342 -103.9417 18° North 438 504 35,500 1,065 Climbing Denver Center
Wed 01:19:00 PM 41.9656 -103.8861 17° North 442 509 36,500 726 Climbing Denver Center
Wed 01:20:02 PM 42.0767 -103.8403 17° North 439 505 37,000 242 Climbing Denver Center
Wed 01:21:04 PM 42.2083 -103.7833 18° North 445 512 37,000  Level Denver Center
Wed 01:22:06 PM 42.3194 -103.7375 17° North 440 506 37,000  Level Denver Center
Wed 01:23:08 PM 42.4492 -103.6806 18° North 441 507 37,000  Level Denver Center
Wed 01:24:10 PM 42.5606 -103.6336 17° North 440 506 37,000  Level Denver Center
Wed 01:25:12 PM 42.6714 -103.5850 18° North 439 505 37,000  Level Denver Center
Wed 01:26:14 PM 42.8006 -103.5289 18° North 440 506 37,000  Level Denver Center
Wed 01:27:15 PM 42.9111 -103.4811 18° North 438 504 37,000 -9,366 Level Denver Center
Wed 01:28:17 PM 43.0397 -103.4261 17° North 435 501 17,800  Descending Denver Center
Wed 01:30:21 PM 43.2817 -103.3214 17° North 439 505 37,000 6,194 Climbing Denver Center
Wed 01:31:23 PM 43.3919 -103.2719 18° North 437 503 37,000  Level Denver Center
Wed 01:32:24 PM 43.5228 -103.2144 18° North 441 507 37,000  Level Denver Center
Wed 01:33:26 PM 43.6333 -103.1647 18° North 440 506 37,000  Level Denver Center
Wed 01:34:27 PM 43.7275 -103.1244 17° North 442 509 37,000  Level Denver Center
Wed 01:35:30 PM 43.8753 -103.0578 18° North 440 506 37,000  Level Denver Center
Wed 01:36:31 PM 43.9819 -102.9939 23° Northeast 443 510 37,000  Level Denver Center
Wed 01:37:33 PM 44.0400 -102.8181 65° Northeast 446 513 37,000  Level Denver Center
Wed 01:38:35 PM 44.0919 -102.6739 63° Northeast 445 512 37,000  Level Denver Center
Wed 01:39:37 PM 44.1431 -102.5158 66° East 447 514 37,000  Level Denver Center
Wed 01:40:38 PM 44.2050 -102.3256 66° East 449 517 37,000  Level Denver Center
Wed 01:41:40 PM 44.2589 -102.1678 64° Northeast 450 518 37,000  Level Denver Center
Wed 01:42:42 PM 44.3100 -102.0089 66° East 450 518 37,000  Level Denver Center
Wed 01:43:44 PM 44.3600 -101.8486 66° East 451 519 37,000  Level Denver Center
Wed 01:44:28 PM 44.4019 -101.7219 65° Northeast 450 518 37,000  Level Minneapolis Center
Wed 01:45:30 PM 44.4539 -101.5597 66° East 453 521 37,000  Level Minneapolis Center
Wed 01:46:31 PM 44.5058 -101.3992 66° East 454 522 37,000  Level Minneapolis Center
Wed 01:46:49 PM 44.5156 -101.3667 67° East 453 521 37,000  Level Denver Center
Wed 01:47:33 PM 44.5575 -101.2358 66° East 456 525 37,000  Level Minneapolis Center
Wed 01:48:35 PM 44.6089 -101.0728 66° East 457 526 37,000  Level Minneapolis Center
Wed 01:49:37 PM 44.6608 -100.9078 66° East 459 528 37,000  Level Minneapolis Center
Wed 01:50:38 PM 44.7128 -100.7419 66° East 462 532 37,000  Level Minneapolis Center
Wed 01:51:40 PM 44.7961 -100.5586 57° Northeast 465 535 37,000  Level Minneapolis Center
Wed 01:52:42 PM 44.8778 -100.4139 51° Northeast 470 541 37,000  Level Minneapolis Center
Wed 01:53:44 PM 44.9597 -100.2672 52° Northeast 473 544 37,000  Level Minneapolis Center
Wed 01:54:45 PM 45.0400 -100.1225 52° Northeast 468 539 37,000  Level Minneapolis Center
Wed 01:55:47 PM 45.1236 -99.9692 52° Northeast 469 540 37,000  Level Minneapolis Center
Wed 01:56:49 PM 45.2069 -99.8214 51° Northeast 469 540 37,000  Level Minneapolis Center
Wed 01:57:51 PM 45.2872 -99.6744 52° Northeast 470 541 37,000  Level Minneapolis Center
Wed 01:58:52 PM 45.3675 -99.5275 52° Northeast 469 540 37,000  Level Minneapolis Center
Wed 01:59:54 PM 45.4492 -99.3792 52° Northeast 473 544 37,000  Level Minneapolis Center
Wed 02:00:56 PM 45.5311 -99.2294 52° Northeast 477 549 37,000  Level Minneapolis Center
Wed 02:01:57 PM 45.6117 -99.0797 52° Northeast 477 549 37,000  Level Minneapolis Center
Wed 02:02:59 PM 45.7092 -98.8972 53° Northeast 480 552 37,000  Level Minneapolis Center
Wed 02:04:01 PM 45.7917 -98.7433 52° Northeast 485 558 37,000  Level Minneapolis Center
Wed 02:05:02 PM 45.8736 -98.5850 53° Northeast 491 565 37,000  Level Minneapolis Center
Wed 02:06:04 PM 45.9575 -98.4267 53° Northeast 497 572 37,000  Level Minneapolis Center
Wed 02:07:05 PM 46.0400 -98.2681 53° Northeast 497 572 37,000  Level Minneapolis Center
Wed 02:08:07 PM 46.1189 -98.1167 53° Northeast 500 575 37,000  Level Minneapolis Center
Wed 02:09:09 PM 46.2006 -97.9519 54° Northeast 505 581 37,000  Level Minneapolis Center
Wed 02:10:10 PM 46.2997 -97.7581 53° Northeast 504 580 37,000  Level Minneapolis Center
Wed 02:11:12 PM 46.3825 -97.5964 53° Northeast 504 580 37,000  Level Minneapolis Center
Wed 02:12:14 PM 46.4653 -97.4333 54° Northeast 506 582 37,000  Level Minneapolis Center
Wed 02:13:15 PM 46.5461 -97.2694 54° Northeast 504 580 37,000  Level Minneapolis Center
Wed 02:14:17 PM 46.6286 -97.1039 54° Northeast 507 583 37,000  Level Minneapolis Center
Wed 02:15:19 PM 46.7122 -96.9361 54° Northeast 515 593 37,000  Level Minneapolis Center
Wed 02:16:20 PM 46.7589 -96.7103 73° East 493 567 37,000  Level Minneapolis Center
Wed 02:17:22 PM 46.7636 -96.5144 88° East 486 559 37,000  Level Minneapolis Center
Wed 02:18:24 PM 46.7683 -96.3197 88° East 484 557 37,000  Level Minneapolis Center
Wed 02:19:26 PM 46.7736 -96.1211 88° East 489 563 37,000  Level Minneapolis Center
Wed 02:20:27 PM 46.7783 -95.9219 88° East 493 567 37,000  Level Minneapolis Center
Wed 02:21:29 PM 46.7819 -95.7119 88° East 493 567 37,000  Level Minneapolis Center
Wed 02:22:31 PM 46.7875 -95.5111 88° East 496 571 37,000  Level Minneapolis Center
Wed 02:23:32 PM 46.7914 -95.3494 88° East 500 575 37,000  Level Minneapolis Center
Wed 02:24:34 PM 46.7953 -95.0681 89° East 497 572 37,000  Level Minneapolis Center
Wed 02:25:36 PM 46.7986 -94.8656 89° East 501 577 37,000  Level Minneapolis Center
Wed 02:26:38 PM 46.8011 -94.6622 89° East 502 578 37,000  Level Minneapolis Center
Wed 02:27:39 PM 46.8022 -94.4597 89° East 503 579 37,000  Level Minneapolis Center
Wed 02:28:41 PM 46.8039 -94.2564 89° East 504 580 37,000  Level Minneapolis Center
Wed 02:29:43 PM 46.8061 -94.0519 89° East 505 581 37,000  Level Minneapolis Center
Wed 02:30:45 PM 46.8072 -93.8489 89° East 505 581 37,000  Level Minneapolis Center
Wed 02:31:46 PM 46.8078 -93.6061 90° East 504 580 37,000  Level Minneapolis Center
Wed 02:32:48 PM 46.8081 -93.4081 90° East 498 573 37,000  Level Minneapolis Center
Wed 02:33:50 PM 46.8078 -93.2039 90° East 504 580 37,000 194 Level Minneapolis Center
Wed 02:34:52 PM 46.8067 -92.9978 90° East 509 586 37,400 585 Climbing Minneapolis Center
Wed 02:35:53 PM 46.8064 -92.7847 90° East 519 597 38,200 780 Climbing Minneapolis Center
Wed 02:36:55 PM 46.8039 -92.5297 91° East 527 606 39,000 387 Climbing Minneapolis Center
Wed 02:37:57 PM 46.8033 -92.3172 90° East 527 606 39,000  Level Minneapolis Center
Wed 02:38:59 PM 46.8008 -92.1056 91° East 526 605 39,000  Level Minneapolis Center
Wed 02:40:00 PM 46.7964 -91.8939 92° East 526 605 39,000 -98 Level Minneapolis Center
Wed 02:41:02 PM 46.7919 -91.6803 92° East 528 608 38,800 -629 Descending Minneapolis Center
Wed 02:42:04 PM 46.7892 -91.4661 91° East 529 609 37,700 -871 Descending Minneapolis Center
Wed 02:43:06 PM 46.7847 -91.2533 92° East 528 608 37,000 -341 Descending Minneapolis Center
Wed 02:44:07 PM 46.7764 -91.0067 93° East 524 603 37,000  Level Minneapolis Center
Wed 02:45:09 PM 46.7731 -90.7922 91° East 526 605 37,000  Level Minneapolis Center
Wed 02:46:11 PM 46.7675 -90.5781 92° East 527 606 37,000  Level Minneapolis Center
Wed 02:47:13 PM 46.7611 -90.3650 92° East 526 605 37,000  Level Minneapolis Center
Wed 02:48:15 PM 46.7542 -90.1511 93° East 526 605 37,000  Level Minneapolis Center
Wed 02:49:16 PM 46.7447 -89.8933 93° East 527 606 37,000  Level Minneapolis Center
Wed 02:50:18 PM 46.7375 -89.6772 93° East 531 611 37,000  Level Minneapolis Center
Wed 02:51:20 PM 46.7294 -89.4597 93° East 532 612 37,000  Level Minneapolis Center
Wed 02:52:22 PM 46.7211 -89.2406 93° East 538 619 37,000  Level Minneapolis Center
Wed 02:53:23 PM 46.7111 -89.0236 94° East 536 617 37,000  Level Minneapolis Center
Wed 02:54:25 PM 46.7019 -88.8058 93° East 535 616 37,000  Level Minneapolis Center
Wed 02:55:27 PM 46.6919 -88.5878 94° East 536 617 37,000  Level Minneapolis Center
Wed 02:56:29 PM 46.6817 -88.3711 94° East 536 617 37,000  Level Minneapolis Center
Wed 02:57:31 PM 46.6703 -88.1539 94° East 536 617 37,000  Level Minneapolis Center
Wed 02:58:32 PM 46.6575 -87.8961 94° East 533 613 37,000  Level Minneapolis Center
Wed 02:59:34 PM 46.6464 -87.7056 95° East 532 612 37,000  Level Minneapolis Center
Wed 03:00:36 PM 46.6347 -87.4897 94° East 535 616 37,000  Level Minneapolis Center
Wed 03:01:38 PM 46.6228 -87.2761 95° East 532 612 37,000  Level Minneapolis Center
Wed 03:02:39 PM 46.6075 -87.0183 95° East 534 615 37,000  Level Minneapolis Center
Wed 03:03:41 PM 46.5942 -86.8031 95° East 534 615 37,000  Level Minneapolis Center
Wed 03:04:43 PM 46.5811 -86.5850 95° East 540 621 37,000  Level Minneapolis Center
Wed 03:05:45 PM 46.5667 -86.3683 95° East 540 621 37,000  Level Minneapolis Center
Wed 03:06:46 PM 46.5519 -86.1500 96° East 542 624 37,000  Level Minneapolis Center
Wed 03:07:48 PM 46.5369 -85.9308 96° East 544 626 37,000  Level Minneapolis Center
Wed 03:08:50 PM 46.5208 -85.7097 96° East 548 631 37,000  Level Minneapolis Center
Wed 03:09:52 PM 46.5011 -85.4464 96° East 548 631 37,000  Level Minneapolis Center
Wed 03:10:53 PM 46.4842 -85.2258 96° East 549 632 37,000  Level Minneapolis Center
Wed 03:11:55 PM 46.4681 -85.0056 96° East 550 633 37,000  Level Minneapolis Center
Wed 03:12:44 PM 46.4333 -84.8167 105° East 550 633 37,000  Level Toronto Center
Wed 03:13:44 PM 46.4333 -84.5833 90° East 550 633 37,000  Level Toronto Center
Wed 03:14:44 PM 46.4000 -84.3667 103° East 560 644 37,000  Level Toronto Center
Wed 03:15:44 PM 46.4000 -84.1333 90° East 560 644 37,000  Level Toronto Center
Wed 03:16:44 PM 46.4000 -83.9333 90° East 560 644 37,000  Level Toronto Center
Wed 03:17:44 PM 46.4167 -83.7000 84° East 560 644 37,000  Level Toronto Center
Wed 03:18:44 PM 46.4000 -83.4833 96° East 550 633 37,000  Level Toronto Center
Wed 03:19:44 PM 46.4167 -83.2667 84° East 550 633 37,000  Level Toronto Center
Wed 03:20:44 PM 46.4167 -83.0500 90° East 550 633 37,000  Level Toronto Center
Wed 03:21:44 PM 46.4000 -82.8167 96° East 550 633 37,000  Level Toronto Center
Wed 03:22:44 PM 46.4167 -82.5833 84° East 550 633 37,000  Level Toronto Center
Wed 03:23:44 PM 46.4000 -82.3667 96° East 550 633 37,000  Level Toronto Center
Wed 03:24:44 PM 46.4000 -82.1500 90° East 550 633 37,000  Level Toronto Center
Wed 03:25:44 PM 46.4167 -81.9333 84° East 550 633 37,000  Level Toronto Center
Wed 03:26:44 PM 46.4000 -81.6833 95° East 550 633 37,000  Level Toronto Center
Wed 03:27:44 PM 46.4000 -81.5000 90° East 550 633 37,000  Level Toronto Center
Wed 03:28:44 PM 46.3833 -81.2500 95° East 550 633 37,000  Level Toronto Center
Wed 03:29:44 PM 46.3833 -81.0333 90° East 540 621 37,000  Level Toronto Center
Wed 03:30:44 PM 46.4000 -80.8333 83° East 540 621 37,000  Level Toronto Center
Wed 03:31:44 PM 46.3833 -80.6000 96° East 540 621 37,000  Level Toronto Center
Wed 03:32:44 PM 46.3833 -80.4000 90° East 540 621 37,000  Level Toronto Center
Wed 03:33:44 PM 46.3667 -80.1667 96° East 540 621 37,000  Level Toronto Center
Wed 03:34:44 PM 46.3667 -79.9667 90° East 540 621 37,000  Level Toronto Center
Wed 03:35:44 PM 46.3667 -79.7333 90° East 540 621 37,000  Level Toronto Center
Wed 03:36:44 PM 46.3500 -79.5333 97° East 530 610 37,000  Level Toronto Center
Wed 03:37:44 PM 46.3500 -79.3167 90° East 540 621 37,000  Level Toronto Center
Wed 03:38:44 PM 46.3167 -79.1000 102° East 540 621 37,000  Level Toronto Center
Wed 03:39:44 PM 46.3000 -78.8833 96° East 540 621 37,000  Level Toronto Center
Wed 03:40:44 PM 46.2667 -78.6667 102° East 540 621 37,000  Level Toronto Center
Wed 03:41:44 PM 46.2500 -78.4500 96° East 540 621 37,000  Level Toronto Center
Wed 03:42:37 PM 46.2167 -78.3000 108° East 540 621 37,000  Level Montreal Center
Wed 03:43:37 PM 46.2000 -78.0833 96° East 540 621 37,000  Level Montreal Center
Wed 03:44:37 PM 46.1667 -77.8500 102° East 540 621 37,000  Level Montreal Center
Wed 03:45:37 PM 46.1333 -77.6667 105° East 540 621 37,000  Level Montreal Center
Wed 03:46:44 PM 46.1167 -77.3667 94° East 550 633 37,000  Level Toronto Center
Wed 03:47:44 PM 46.0667 -77.1500 108° East 550 633 37,000  Level Toronto Center
Wed 03:48:44 PM 46.0500 -76.9333 96° East 550 633 37,000  Level Toronto Center
Wed 03:49:44 PM 46.0167 -76.7333 103° East 560 644 37,000  Level Toronto Center
Wed 03:50:37 PM 46.0000 -76.5500 97° East 560 644 37,000  Level Montreal Center
Wed 03:51:37 PM 45.9667 -76.3333 102° East 560 644 37,000  Level Montreal Center
Wed 03:52:37 PM 45.9333 -76.1167 102° East 560 644 37,000  Level Montreal Center
Wed 03:53:37 PM 45.9000 -75.9167 103° East 550 633 37,000  Level Montreal Center
Wed 03:54:37 PM 45.8333 -75.7333 118° Southeast 540 621 37,000  Level Montreal Center
Wed 03:55:37 PM 45.7333 -75.5667 131° Southeast 530 610 37,000  Level Montreal Center
Wed 03:56:37 PM 45.6167 -75.4167 138° Southeast 530 610 37,000  Level Montreal Center
Wed 03:57:37 PM 45.5000 -75.2667 138° Southeast 530 610 37,000  Level Montreal Center
Wed 03:58:37 PM 45.4167 -75.1167 128° Southeast 530 610 37,000  Level Montreal Center
Wed 03:59:37 PM 45.3167 -74.9667 133° Southeast 520 598 37,000  Level Montreal Center
Wed 04:00:37 PM 45.2000 -74.8333 141° Southeast 520 598 37,000  Level Montreal Center
Wed 04:01:37 PM 45.1000 -74.6833 133° Southeast 520 598 37,000  Level Montreal Center
Wed 04:02:37 PM 45.0167 -74.5500 131° Southeast 520 598 37,000  Level Montreal Center
Wed 04:03:37 PM 44.9000 -74.3833 135° Southeast 520 598 37,000  Level Montreal Center
Wed 04:04:22 PM 44.8442 -74.3139 139° Southeast 519 597 37,000  Level Boston Center
Wed 04:05:22 PM 44.7422 -74.1703 135° Southeast 519 597 37,000  Level Boston Center
Wed 04:06:23 PM 44.6486 -74.0128 130° Southeast 519 597 37,000  Level Boston Center
Wed 04:07:23 PM 44.5489 -73.8325 128° Southeast 527 606 37,000 -744 Level Boston Center
Wed 04:08:24 PM 44.4589 -73.6761 129° Southeast 527 606 35,500 -1,805 Descending Boston Center
Wed 04:09:36 PM 44.3728 -73.5264 129° Southeast 514 592 33,000 -2,354 Descending Boston Center
Wed 04:10:34 PM 44.2681 -73.3447 129° Southeast 514 592 30,400 -2,017 Descending Boston Center
Wed 04:11:35 PM 44.1839 -73.1958 128° Southeast 502 578 29,000 -1,574 Descending Boston Center
Wed 04:12:36 PM 44.1075 -73.0675 130° Southeast 491 565 27,200 -2,017 Descending Boston Center
Wed 04:13:34 PM 44.0269 -72.9253 128° Southeast 477 549 25,000 -2,218 Descending Boston Center
Wed 04:14:35 PM 43.9442 -72.7861 130° Southeast 467 537 22,800 -2,115 Descending Boston Center
Wed 04:15:36 PM 43.8672 -72.6561 129° Southeast 451 519 20,700 -2,083 Descending Boston Center
Wed 04:16:36 PM 43.7925 -72.5236 128° Southeast 446 513 18,600 -2,118 Descending Boston Center
Wed 04:17:35 PM 43.7194 -72.4000 129° Southeast 431 496 16,500 -1,311 Descending Boston Center
Wed 04:18:35 PM 43.6444 -72.2794 131° Southeast 426 490 16,000 -248 Descending Boston Center
Wed 04:19:36 PM 43.5756 -72.1592 128° Southeast 413 475 16,000 -595 Level Boston Center
Wed 04:20:36 PM 43.5042 -72.0450 131° Southeast 408 470 14,800 -1,373 Descending Boston Center
Wed 04:21:34 PM 43.4331 -71.9283 130° Southeast 403 464 13,300 -1,678 Descending Boston Center
Wed 04:22:34 PM 43.3594 -71.8089 130° Southeast 381 438 11,500 -1,140 Descending Boston Center
Wed 04:23:35 PM 43.2903 -71.7383 143° Southeast 357 411 11,000 -893 Descending Boston Center
Wed 04:24:35 PM 43.1983 -71.7111 168° South 314 361 9,700 -1,350 Descending Boston Center
Wed 04:25:35 PM 43.1275 -71.7175 184° South 292 336 8,300 -1,587 Descending Boston Center
Wed 04:26:36 PM 43.0442 -71.7269 185° South 285 328 6,500 -1,613 Descending Boston Center
Wed 04:27:34 PM 42.9778 -71.7447 191° South 271 312 5,100 -1,133 Descending Boston Center
Wed 04:29:36 PM 42.8483 -71.7150 170° South 239 275 3,100 -923 Descending Boston Center
Wed 04:30:36 PM 42.8103 -71.6447 126° Southeast 214 246 2,300 -508 Descending Boston Center
Wed 04:31:34 PM 42.8264 -71.5794 71° East 174 200 2,100 -151 Descending Boston Center
Wed 04:32:35 PM 42.8617 -71.5336 44° Northeast 168 193 2,000 -344 Descending Boston Center
Wed 04:33:36 PM 42.8842 -71.5050 43° Northeast 160 184 1,400 -744 Descending Boston Center
Wed 04:34:36 PM 42.9214 -71.4561 44° Northeast 143 165 500 -900 Descending Boston Center
Wed 04:36:00 PM 42.9167 -71.4333 48° Northeast  Level FlightAware Approximate
Wed 04:43:00 PM 42.9328 -71.4358 48° Northeast  Level Estimated

Login

Don't have an account? Register now (free) for customized features, flight alerts, and more!